Time;durP1;ratioP1;P1;durP2;ratioP2;P2;SDS_P1;SDS_P2;PMS_P1;PMS_P2;Temp;Humidity;BMP_temperature;BMP_pressure;BME280_temperature;BME280_humidity;BME280_pressure;Samples;Min_cycle;Max_cycle;Signal;HPM_P1;HPM_P2
2022/04/27 00:01:55;;;;;;;5.43;3.83;;;13.60;87.20;;;;;;6303207;22;20449;-50
2022/04/27 00:04:21;;;;;;;5.50;3.80;;;13.60;87.70;;;;;;6302946;22;20405;-44
2022/04/27 00:06:48;;;;;;;5.20;3.20;;;13.60;88.10;;;;;;6303197;22;20444;-52
2022/04/27 00:09:15;;;;;;;7.50;4.43;;;13.60;88.20;;;;;;6303414;22;20394;-47
2022/04/27 00:11:43;;;;;;;4.33;3.30;;;13.60;88.70;;;;;;6303537;22;20386;-52
2022/04/27 00:14:10;;;;;;;5.93;4.77;;;13.60;88.90;;;;;;6302905;22;20448;-48
2022/04/27 00:16:36;;;;;;;6.03;3.83;;;13.60;88.80;;;;;;6303251;22;20403;-42
2022/04/27 00:19:03;;;;;;;4.77;3.70;;;13.50;89.20;;;;;;6303026;22;20422;-52
2022/04/27 00:21:30;;;;;;;6.13;3.60;;;13.40;89.90;;;;;;6303015;22;20437;-46
2022/04/27 00:23:57;;;;;;;5.30;3.20;;;13.40;90.10;;;;;;6302689;22;20426;-46
2022/04/27 00:26:23;;;;;;;4.83;3.90;;;13.30;90.40;;;;;;6302954;22;20418;-43
2022/04/27 00:28:51;;;;;;;7.30;3.73;;;13.30;90.70;;;;;;6302907;22;20466;-39
2022/04/27 00:31:18;;;;;;;6.77;3.80;;;13.20;91.10;;;;;;6303240;22;20363;-47
2022/04/27 00:33:48;;;;;;;4.80;3.40;;;13.10;91.40;;;;;;6302587;22;20425;-49
2022/04/27 00:36:17;;;;;;;5.50;3.90;;;13.00;92.00;;;;;;6302963;22;20442;-46
2022/04/27 00:38:44;;;;;;;5.20;3.73;;;12.90;92.60;;;;;;6302838;22;20421;-54
2022/04/27 00:41:12;;;;;;;6.43;3.33;;;12.80;93.20;;;;;;6302766;22;20425;-48
2022/04/27 00:43:41;;;;;;;5.80;3.87;;;12.70;93.70;;;;;;6302897;22;20416;-44
2022/04/27 00:46:12;;;;;;;13.43;4.53;;;12.60;94.20;;;;;;6303071;22;20422;-53
2022/04/27 00:48:40;;;;;;;7.47;4.50;;;12.60;94.70;;;;;;6303008;22;20382;-46
2022/04/27 00:51:08;;;;;;;8.70;4.37;;;12.60;95.20;;;;;;6302617;22;20454;-43
2022/04/27 00:53:37;;;;;;;4.50;3.33;;;12.60;95.60;;;;;;6302655;22;20409;-52
2022/04/27 00:56:04;;;;;;;5.67;3.87;;;12.60;96.00;;;;;;6302376;22;20442;-50
2022/04/27 00:58:31;;;;;;;4.90;3.53;;;12.50;96.90;;;;;;6302340;22;20406;-49
2022/04/27 01:00:57;;;;;;;8.00;4.80;;;12.40;97.10;;;;;;6302693;22;20386;-53
2022/04/27 01:03:26;;;;;;;5.03;4.07;;;12.30;97.80;;;;;;6302568;22;20439;-50
2022/04/27 01:05:53;;;;;;;10.67;4.10;;;12.30;98.40;;;;;;6302551;22;20394;-47
2022/04/27 01:08:21;;;;;;;6.47;4.60;;;12.20;99.00;;;;;;6302374;22;20426;-48
2022/04/27 01:10:49;;;;;;;11.60;4.90;;;12.20;99.70;;;;;;6302634;22;20470;-53
2022/04/27 01:13:17;;;;;;;4.90;4.03;;;12.20;99.90;;;;;;6302540;22;20402;-44
2022/04/27 01:15:44;;;;;;;6.50;4.70;;;12.10;99.90;;;;;;6302758;22;20418;-41
2022/04/27 01:18:11;;;;;;;17.90;5.10;;;12.10;99.90;;;;;;6302718;22;20398;-47
2022/04/27 01:20:43;;;;;;;4.97;4.40;;;12.10;99.90;;;;;;6302847;22;20434;-45
2022/04/27 01:23:11;;;;;;;5.50;3.80;;;12.10;99.90;;;;;;6302489;22;20391;-53
2022/04/27 01:25:49;;;;;;;5.93;4.00;;;12.00;99.90;;;;;;6302475;22;20414;-50
2022/04/27 01:28:17;;;;;;;4.90;3.90;;;12.00;99.90;;;;;;6302257;22;20409;-43
2022/04/27 01:30:44;;;;;;;5.90;3.77;;;11.90;99.90;;;;;;6302637;22;20452;-55
2022/04/27 01:33:11;;;;;;;8.87;4.40;;;11.90;99.90;;;;;;6302969;22;20386;-50
2022/04/27 01:35:41;;;;;;;5.87;3.60;;;11.90;99.90;;;;;;6302640;22;20513;-49
2022/04/27 01:38:08;;;;;;;7.27;3.60;;;11.80;99.90;;;;;;6302438;22;20417;-49
2022/04/27 01:40:35;;;;;;;7.07;4.37;;;11.80;99.90;;;;;;6302357;22;20514;-51
2022/04/27 01:43:02;;;;;;;6.30;3.63;;;11.80;99.90;;;;;;6302391;22;20403;-42
2022/04/27 01:45:28;;;;;;;5.47;3.37;;;11.80;99.90;;;;;;6302652;22;20395;-48
2022/04/27 01:47:57;;;;;;;5.57;4.33;;;11.70;99.90;;;;;;6302358;22;20378;-47
2022/04/27 01:50:27;;;;;;;6.60;4.23;;;11.70;99.90;;;;;;6302220;22;20469;-50
2022/04/27 01:55:39;;;;;;;6.47;3.53;;;11.50;99.90;;;;;;6302143;22;20449;-45
2022/04/27 01:58:06;;;;;;;8.23;4.60;;;11.50;99.90;;;;;;6302164;22;20406;-36
2022/04/27 02:00:33;;;;;;;5.80;4.33;;;11.50;99.90;;;;;;6302319;22;20406;-48
2022/04/27 02:03:00;;;;;;;5.70;4.10;;;11.50;99.90;;;;;;6302352;22;20413;-39
2022/04/27 02:05:27;;;;;;;5.20;3.63;;;11.50;99.90;;;;;;6302362;22;20492;-47
2022/04/27 02:07:55;;;;;;;8.20;4.80;;;11.50;99.90;;;;;;6302127;22;20423;-50
2022/04/27 02:10:21;;;;;;;7.00;4.53;;;11.40;99.90;;;;;;6302113;22;20418;-50
2022/04/27 02:12:48;;;;;;;6.70;4.07;;;11.40;99.90;;;;;;6302160;22;20410;-49
2022/04/27 02:15:15;;;;;;;10.13;4.77;;;11.30;99.90;;;;;;6302164;22;20446;-44
2022/04/27 02:17:42;;;;;;;7.93;5.00;;;11.30;99.90;;;;;;6301718;22;20411;-45
2022/04/27 02:20:10;;;;;;;7.00;5.63;;;11.20;99.90;;;;;;6302320;22;20426;-50
2022/04/27 02:22:40;;;;;;;7.67;6.10;;;11.20;99.90;;;;;;6302305;22;20398;-50
2022/04/27 02:25:09;;;;;;;6.43;4.67;;;11.20;99.90;;;;;;6301980;22;20397;-46
2022/04/27 02:27:35;;;;;;;9.87;5.73;;;11.10;99.90;;;;;;6302378;22;20414;-54
2022/04/27 02:30:03;;;;;;;11.97;5.40;;;11.10;99.90;;;;;;6302603;22;20429;-46
2022/04/27 02:32:30;;;;;;;8.23;5.20;;;11.00;99.90;;;;;;6302595;22;20424;-40
2022/04/27 02:34:56;;;;;;;6.40;4.47;;;11.00;99.90;;;;;;6302468;22;20456;-49
2022/04/27 02:37:23;;;;;;;7.37;5.00;;;10.90;99.90;;;;;;6302514;22;20414;-51
2022/04/27 02:39:49;;;;;;;8.40;4.33;;;10.90;99.90;;;;;;6302699;22;20414;-50
2022/04/27 02:42:19;;;;;;;12.40;5.60;;;10.90;99.90;;;;;;6304488;22;20414;-47
2022/04/27 02:44:46;;;;;;;8.30;5.07;;;10.80;99.90;;;;;;6304626;22;20409;-44
2022/04/27 02:47:13;;;;;;;8.90;4.90;;;10.80;99.90;;;;;;6304431;22;20386;-39
2022/04/27 02:52:24;;;;;;;9.13;5.30;;;10.70;99.90;;;;;;6303883;22;20400;-48
2022/04/27 02:54:51;;;;;;;7.10;4.60;;;10.70;99.90;;;;;;6303431;22;20422;-43
2022/04/27 02:57:18;;;;;;;9.40;5.23;;;10.70;99.90;;;;;;6303539;22;20474;-45
2022/04/27 02:59:45;;;;;;;11.93;7.03;;;10.70;99.90;;;;;;6303545;22;20403;-50
2022/04/27 03:02:12;;;;;;;6.63;5.30;;;10.70;99.90;;;;;;6303460;22;20398;-50
2022/04/27 03:04:39;;;;;;;13.73;4.43;;;10.70;99.90;;;;;;6303139;22;20429;-50
2022/04/27 03:07:06;;;;;;;6.70;4.97;;;10.60;99.90;;;;;;6303912;22;20403;-49
2022/04/27 03:09:35;;;;;;;6.53;4.70;;;10.60;99.90;;;;;;6303397;22;20432;-48
2022/04/27 03:12:02;;;;;;;7.33;4.87;;;10.60;99.90;;;;;;6303243;22;20426;-49
2022/04/27 03:14:30;;;;;;;11.20;5.07;;;10.60;99.90;;;;;;6303430;22;20488;-45
2022/04/27 03:16:57;;;;;;;11.53;5.20;;;10.60;99.90;;;;;;6303772;22;20426;-41
2022/04/27 03:19:24;;;;;;;8.00;4.83;;;10.60;99.90;;;;;;6303423;22;20386;-52
2022/04/27 03:21:53;;;;;;;7.07;5.03;;;10.60;99.90;;;;;;6303973;22;20418;-46
2022/04/27 03:24:22;;;;;;;9.17;4.70;;;10.60;99.90;;;;;;6303013;22;20409;-42
2022/04/27 03:26:48;;;;;;;9.67;5.40;;;10.50;99.90;;;;;;6303247;22;20410;-50
2022/04/27 03:29:16;;;;;;;7.60;5.10;;;10.60;99.90;;;;;;6303611;22;20402;-47
2022/04/27 03:31:46;;;;;;;7.47;5.67;;;10.50;99.90;;;;;;6303478;22;20414;-42
2022/04/27 03:34:13;;;;;;;17.40;5.93;;;10.50;99.90;;;;;;6304026;22;20390;-54
2022/04/27 03:36:40;;;;;;;9.80;4.93;;;10.50;99.90;;;;;;6303372;22;20418;-46
2022/04/27 03:39:07;;;;;;;5.87;3.73;;;10.50;99.90;;;;;;6303457;22;20406;-43
2022/04/27 03:41:33;;;;;;;8.90;4.83;;;10.40;99.90;;;;;;6303383;22;20432;-46
2022/04/27 03:44:00;;;;;;;10.47;4.87;;;10.40;99.90;;;;;;6302647;22;20426;-53
2022/04/27 03:46:28;;;;;;;8.27;4.20;;;10.40;99.90;;;;;;6303171;22;20406;-54
2022/04/27 03:48:56;;;;;;;12.33;5.90;;;10.30;99.90;;;;;;6302577;22;20452;-43
2022/04/27 03:51:23;;;;;;;8.70;5.47;;;10.30;99.90;;;;;;6302873;22;20412;-48
2022/04/27 03:53:51;;;;;;;9.13;4.80;;;10.30;99.90;;;;;;6303112;22;20436;-49
2022/04/27 03:56:19;;;;;;;10.00;5.03;;;10.20;99.90;;;;;;6303047;22;20491;-47
2022/04/27 03:58:46;;;;;;;8.43;4.90;;;10.30;99.90;;;;;;6302715;22;20406;-52
2022/04/27 04:01:12;;;;;;;10.70;5.07;;;10.30;99.90;;;;;;6302532;22;20426;-43
2022/04/27 04:03:43;;;;;;;7.83;4.90;;;10.30;99.90;;;;;;6303625;22;20401;-52
2022/04/27 04:06:11;;;;;;;8.50;5.30;;;10.30;99.90;;;;;;6303278;22;20430;-49
2022/04/27 04:08:40;;;;;;;9.77;6.20;;;10.20;99.90;;;;;;6303097;22;20398;-56
2022/04/27 04:11:07;;;;;;;8.17;5.60;;;10.20;99.90;;;;;;6302746;22;20410;-55
2022/04/27 04:13:34;;;;;;;9.20;5.30;;;10.20;99.90;;;;;;6303567;22;20387;-45
2022/04/27 04:16:00;;;;;;;7.40;5.30;;;10.30;99.90;;;;;;6302739;22;20426;-49
2022/04/27 04:18:27;;;;;;;8.67;5.20;;;10.30;99.90;;;;;;6302716;22;20398;-54
2022/04/27 04:20:54;;;;;;;6.23;5.20;;;10.30;99.90;;;;;;6303058;22;20406;-61
2022/04/27 04:23:22;;;;;;;7.20;4.20;;;10.20;99.90;;;;;;6302803;22;20432;-45
2022/04/27 04:28:33;;;;;;;10.30;6.13;;;10.20;99.90;;;;;;6302508;22;20414;-50
2022/04/27 04:31:01;;;;;;;7.67;5.47;;;10.30;99.90;;;;;;6302348;22;20403;-55
2022/04/27 04:33:28;;;;;;;10.90;5.50;;;10.30;99.90;;;;;;6302010;22;20502;-50
2022/04/27 04:35:56;;;;;;;7.80;5.03;;;10.40;99.90;;;;;;6302362;22;20430;-47
2022/04/27 04:38:25;;;;;;;7.03;4.80;;;10.40;99.90;;;;;;6302710;22;20413;-52
2022/04/27 04:40:52;;;;;;;10.40;6.10;;;10.40;99.90;;;;;;6302612;22;20462;-52
2022/04/27 04:43:21;;;;;;;11.43;5.87;;;10.50;99.90;;;;;;6302209;22;20399;-48
2022/04/27 04:45:50;;;;;;;8.77;5.10;;;10.50;99.90;;;;;;6302383;22;20876;-51
2022/04/27 04:48:17;;;;;;;10.93;4.87;;;10.60;99.90;;;;;;6302040;22;20397;-50
2022/04/27 04:50:45;;;;;;;12.90;5.40;;;10.60;99.90;;;;;;6302293;22;20418;-44
2022/04/27 04:53:12;;;;;;;8.13;5.03;;;10.60;99.90;;;;;;6301970;22;20398;-49
2022/04/27 04:55:47;;;;;;;8.53;5.50;;;10.70;99.90;;;;;;6302525;22;20476;-52
2022/04/27 04:58:13;;;;;;;22.03;6.87;;;10.70;99.90;;;;;;6302344;22;20416;-51
2022/04/27 05:00:40;;;;;;;16.77;6.27;;;10.70;99.90;;;;;;6302740;22;20416;-54
2022/04/27 05:03:07;;;;;;;10.60;5.83;;;10.80;99.90;;;;;;6301820;22;20412;-50
2022/04/27 05:05:34;;;;;;;8.30;5.33;;;10.80;99.90;;;;;;6302508;22;20396;-48
2022/04/27 05:08:01;;;;;;;9.37;6.33;;;10.90;99.90;;;;;;6301848;22;20404;-53
2022/04/27 05:10:28;;;;;;;9.00;5.50;;;10.90;99.90;;;;;;6302655;22;20397;-50
2022/04/27 05:12:58;;;;;;;10.80;6.13;;;10.90;99.90;;;;;;6302207;22;20426;-50
2022/04/27 05:15:24;;;;;;;8.57;4.50;;;10.90;99.90;;;;;;6302338;22;20394;-43
2022/04/27 05:17:51;;;;;;;9.90;6.00;;;11.00;99.90;;;;;;6301841;22;20485;-49
2022/04/27 05:20:18;;;;;;;12.23;7.10;;;11.10;99.90;;;;;;6302318;22;20410;-50
2022/04/27 05:22:48;;;;;;;15.20;6.90;;;11.20;99.90;;;;;;6302945;22;20402;-44
2022/04/27 05:25:15;;;;;;;10.17;5.50;;;11.30;99.90;;;;;;6302242;22;20390;-48
2022/04/27 05:27:41;;;;;;;15.90;5.43;;;11.50;99.90;;;;;;6302210;22;20845;-49
2022/04/27 05:32:55;;;;;;;8.93;5.07;;;11.70;99.90;;;;;;6302344;22;20442;-49
2022/04/27 05:35:22;;;;;;;12.73;5.37;;;11.80;99.90;;;;;;6302584;22;20433;-39
2022/04/27 05:37:49;;;;;;;7.73;5.63;;;11.90;99.90;;;;;;6302344;22;20399;-51
2022/04/27 05:40:16;;;;;;;9.30;5.40;;;11.90;99.90;;;;;;6302316;22;20486;-52
2022/04/27 05:42:43;;;;;;;7.60;4.80;;;12.00;99.90;;;;;;6302544;22;20465;-50
2022/04/27 05:45:12;;;;;;;6.30;4.80;;;12.10;99.90;;;;;;6301948;22;20402;-45
2022/04/27 05:47:39;;;;;;;9.30;6.20;;;12.10;99.90;;;;;;6303055;22;20378;-50
2022/04/27 05:50:07;;;;;;;10.30;4.63;;;12.10;99.90;;;;;;6302468;22;20436;-45
2022/04/27 05:52:50;;;;;;;12.10;4.70;;;12.10;99.90;;;;;;6301879;22;20394;-47
2022/04/27 05:55:19;;;;;;;7.43;5.30;;;12.20;99.90;;;;;;6302347;22;20405;-52
2022/04/27 05:57:45;;;;;;;7.23;4.90;;;12.20;99.90;;;;;;6302746;22;20454;-43
2022/04/27 06:00:14;;;;;;;9.63;5.50;;;12.20;99.90;;;;;;6302590;22;20393;-45
2022/04/27 06:02:41;;;;;;;6.60;4.47;;;12.30;99.90;;;;;;6302321;22;20482;-49
2022/04/27 06:05:09;;;;;;;13.40;6.00;;;12.30;99.90;;;;;;6302627;22;20390;-49
2022/04/27 06:07:36;;;;;;;8.43;4.70;;;12.30;99.90;;;;;;6302465;22;20404;-45
2022/04/27 06:10:03;;;;;;;8.97;4.97;;;12.30;99.90;;;;;;6302784;22;20399;-41
2022/04/27 06:12:36;;;;;;;8.80;4.97;;;12.30;99.90;;;;;;6302874;22;20390;-48
2022/04/27 06:15:04;;;;;;;21.00;6.57;;;12.40;99.90;;;;;;6303725;22;20381;-51
2022/04/27 06:17:32;;;;;;;10.80;5.73;;;12.40;99.90;;;;;;6304631;22;20460;-46
2022/04/27 06:19:59;;;;;;;13.30;6.20;;;12.50;99.90;;;;;;6304526;22;20418;-40
2022/04/27 06:22:26;;;;;;;6.43;4.30;;;12.60;99.90;;;;;;6304064;22;20397;-50
2022/04/27 06:24:53;;;;;;;8.17;4.83;;;12.60;99.90;;;;;;6303646;22;20453;-45
2022/04/27 06:27:21;;;;;;;10.43;5.60;;;12.60;99.90;;;;;;6304280;22;20402;-50
2022/04/27 06:29:48;;;;;;;8.50;5.33;;;12.70;99.90;;;;;;6304041;22;20396;-46
2022/04/27 06:32:16;;;;;;;7.57;4.73;;;12.90;99.70;;;;;;6304354;22;20383;-45
2022/04/27 06:34:44;;;;;;;8.77;6.47;;;13.00;99.80;;;;;;6304131;22;20428;-47
2022/04/27 06:37:11;;;;;;;6.90;4.90;;;13.10;99.50;;;;;;6303574;22;20464;-46
2022/04/27 06:39:40;;;;;;;13.17;5.63;;;13.10;99.20;;;;;;6291801;22;20455;-50
2022/04/27 06:42:08;;;;;;;5.43;4.63;;;13.20;99.10;;;;;;6279295;22;20496;-58
2022/04/27 06:44:34;;;;;;;10.50;5.20;;;13.20;99.40;;;;;;6279813;22;20414;-52
2022/04/27 06:47:01;;;;;;;9.37;6.67;;;13.30;99.30;;;;;;6279566;22;20426;-50
2022/04/27 06:49:28;;;;;;;10.10;5.97;;;13.30;99.10;;;;;;6279864;22;20393;-55
2022/04/27 06:51:56;;;;;;;7.90;6.00;;;13.30;98.90;;;;;;6279531;22;20406;-52
2022/04/27 06:54:23;;;;;;;8.17;6.13;;;13.40;98.80;;;;;;6279792;22;20406;-55
2022/04/27 06:56:49;;;;;;;13.53;6.60;;;13.40;99.90;;;;;;6279249;22;20438;-53
2022/04/27 06:59:16;;;;;;;8.97;6.40;;;13.40;98.50;;;;;;6279182;22;20414;-51
2022/04/27 07:01:43;;;;;;;12.83;5.27;;;13.50;98.50;;;;;;6279752;22;20417;-51
2022/04/27 07:04:11;;;;;;;10.67;5.80;;;13.60;98.20;;;;;;6279490;22;20430;-52
2022/04/27 07:06:39;;;;;;;9.30;7.30;;;13.60;97.90;;;;;;6279372;22;20489;-52
2022/04/27 07:09:10;;;;;;;13.47;6.00;;;13.70;97.70;;;;;;6279575;22;20437;-53
2022/04/27 07:11:37;;;;;;;7.50;5.60;;;13.70;97.70;;;;;;6279334;22;20412;-54
2022/04/27 07:14:04;;;;;;;12.03;6.60;;;13.80;97.30;;;;;;6279539;22;20402;-48
2022/04/27 07:16:30;;;;;;;7.97;5.13;;;13.90;96.90;;;;;;6279536;22;20438;-50
2022/04/27 07:18:57;;;;;;;9.50;6.80;;;14.00;96.30;;;;;;6279352;22;20405;-53
2022/04/27 07:21:24;;;;;;;10.67;5.73;;;14.00;96.30;;;;;;6279520;22;20413;-54
2022/04/27 07:23:51;;;;;;;7.97;5.40;;;14.00;96.00;;;;;;6279412;22;20410;-55
2022/04/27 07:26:24;;;;;;;9.60;5.73;;;14.00;95.80;;;;;;6295721;22;20501;-50
2022/04/27 07:28:55;;;;;;;10.57;5.00;;;14.10;95.80;;;;;;6303481;22;20394;-46
2022/04/27 07:31:22;;;;;;;7.37;5.00;;;14.20;95.10;;;;;;6303355;22;20429;-52
2022/04/27 07:33:49;;;;;;;9.67;4.93;;;14.30;94.60;;;;;;6302510;22;20462;-48
2022/04/27 07:36:16;;;;;;;8.27;4.20;;;14.30;94.10;;;;;;6302137;22;20421;-52
2022/04/27 07:38:46;;;;;;;8.43;5.50;;;14.60;96.30;;;;;;6302450;22;20769;-49
2022/04/27 07:41:12;;;;;;;7.63;5.47;;;14.90;94.80;;;;;;6302885;22;20410;-47
2022/04/27 07:43:40;;;;;;;7.43;5.00;;;15.20;94.30;;;;;;6302983;22;20435;-43
2022/04/27 07:46:08;;;;;;;11.80;5.07;;;15.40;93.40;;;;;;6303183;22;20402;-43
2022/04/27 07:48:35;;;;;;;7.30;5.27;;;15.80;93.10;;;;;;6302604;22;20891;-52
2022/04/27 07:51:03;;;;;;;6.73;4.90;;;16.60;91.80;;;;;;6303868;22;20464;-48
2022/04/27 07:53:32;;;;;;;6.73;5.20;;;18.40;87.80;;;;;;6303012;22;20409;-43
2022/04/27 07:55:59;;;;;;;7.87;5.17;;;20.60;78.20;;;;;;6302826;22;20383;-52
2022/04/27 07:58:26;;;;;;;6.60;4.60;;;22.90;64.50;;;;;;6301141;22;20425;-51
2022/04/27 08:00:54;;;;;;;6.70;4.70;;;24.90;56.00;;;;;;6300788;22;20415;-55
2022/04/27 08:03:20;;;;;;;8.60;4.70;;;26.90;49.80;;;;;;6300669;22;20430;-49
2022/04/27 08:05:49;;;;;;;6.00;4.83;;;28.20;44.30;;;;;;6300122;22;20471;-49
2022/04/27 08:08:16;;;;;;;9.80;6.50;;;28.80;41.30;;;;;;6301223;22;20394;-51
2022/04/27 08:10:42;;;;;;;4.90;4.30;;;29.50;39.50;;;;;;6302477;22;20386;-46
2022/04/27 08:13:09;;;;;;;4.00;3.60;;;30.40;36.90;;;;;;6300980;22;20412;-49
2022/04/27 08:15:37;;;;;;;3.70;2.80;;;31.00;33.80;;;;;;6299482;22;20417;-46
2022/04/27 08:18:07;;;;;;;3.87;3.10;;;31.00;32.50;;;;;;6300906;22;20442;-45
2022/04/27 08:23:20;;;;;;;4.13;3.00;;;31.00;31.40;;;;;;6298717;22;20652;-52
2022/04/27 08:25:48;;;;;;;3.40;3.10;;;31.20;31.40;;;;;;6298149;22;20430;-48
2022/04/27 08:28:16;;;;;;;4.00;3.00;;;30.40;30.30;;;;;;6298912;22;20398;-46
2022/04/27 08:30:44;;;;;;;6.17;3.10;;;30.30;30.90;;;;;;6300048;22;20402;-44
2022/04/27 08:33:13;;;;;;;3.43;3.13;;;30.80;30.80;;;;;;6299502;22;20399;-47
2022/04/27 08:35:41;;;;;;;5.57;3.30;;;31.30;29.90;;;;;;6297375;22;20411;-44
2022/04/27 08:38:09;;;;;;;4.87;3.50;;;31.30;30.30;;;;;;6297261;22;20480;-51
2022/04/27 08:40:37;;;;;;;4.40;3.20;;;31.20;29.80;;;;;;6296320;22;20501;-44
2022/04/27 08:43:04;;;;;;;5.73;4.00;;;30.70;30.00;;;;;;6297773;22;20432;-46
2022/04/27 08:45:32;;;;;;;3.57;3.03;;;30.30;30.10;;;;;;6298209;22;20398;-51
2022/04/27 08:47:59;;;;;;;3.87;3.00;;;30.00;30.90;;;;;;6302619;22;20406;-49
2022/04/27 08:50:28;;;;;;;4.17;3.77;;;29.70;31.20;;;;;;6301911;22;20410;-50
2022/04/27 08:52:55;;;;;;;2.90;2.60;;;29.60;30.50;;;;;;6300736;22;20402;-41
2022/04/27 08:55:23;;;;;;;3.33;3.03;;;29.50;31.10;;;;;;6300568;22;20432;-49
2022/04/27 08:57:50;;;;;;;2.83;2.63;;;29.50;30.80;;;;;;6298892;22;20466;-52
2022/04/27 09:00:19;;;;;;;3.53;3.00;;;29.70;30.40;;;;;;6298856;22;20426;-47
2022/04/27 09:02:53;;;;;;;4.00;3.17;;;30.00;30.30;;;;;;6298290;22;20408;-46
2022/04/27 09:05:20;;;;;;;4.70;4.20;;;29.90;30.10;;;;;;6298299;22;20437;-39
2022/04/27 09:07:54;;;;;;;2.90;2.60;;;30.00;30.00;;;;;;6298037;22;20406;-48
2022/04/27 09:10:24;;;;;;;4.40;2.63;;;29.80;30.00;;;;;;6298158;22;20391;-52
2022/04/27 09:12:52;;;;;;;4.63;2.90;;;29.70;30.00;;;;;;6298284;22;20406;-54
2022/04/27 09:15:20;;;;;;;3.43;2.83;;;29.80;29.70;;;;;;6297450;22;20470;-51
2022/04/27 09:20:47;;;;;;;2.97;2.50;;;29.80;29.60;;;;;;6302727;22;20431;-45
2022/04/27 09:23:23;;;;;;;4.80;2.83;;;29.10;30.00;;;;;;6302257;22;20432;-45
2022/04/27 09:25:51;;;;;;;3.20;2.80;;;28.90;29.50;;;;;;6302431;22;20381;-53
2022/04/27 09:28:19;;;;;;;5.20;2.90;;;28.10;29.70;;;;;;6302407;22;20422;-43
2022/04/27 09:30:48;;;;;;;2.90;2.60;;;27.00;30.80;;;;;;6301798;22;20406;-45
2022/04/27 09:33:29;;;;;;;3.50;2.77;;;26.80;31.60;;;;;;6302040;22;20419;-48
2022/04/27 09:35:56;;;;;;;3.43;2.23;;;27.10;30.30;;;;;;6302689;22;20398;-47
2022/04/27 09:38:24;;;;;;;5.80;3.20;;;27.40;30.50;;;;;;6302245;22;20442;-50
2022/04/27 09:40:52;;;;;;;2.90;2.60;;;28.10;29.00;;;;;;6301964;22;20398;-48
2022/04/27 09:43:43;;;;;;;2.53;2.20;;;28.20;28.70;;;;;;6302532;22;20383;-41
2022/04/27 09:46:17;;;;;;;4.50;2.60;;;27.80;29.30;;;;;;6301687;22;20491;-48
2022/04/27 09:48:46;;;;;;;2.90;2.37;;;26.70;30.70;;;;;;6302098;22;20410;-46
2022/04/27 09:51:13;;;;;;;5.53;2.70;;;26.30;31.60;;;;;;6301716;22;20481;-42
2022/04/27 09:53:44;;;;;;;2.30;2.10;;;26.60;31.60;;;;;;6301987;22;20440;-45
2022/04/27 09:56:12;;;;;;;4.50;2.97;;;26.50;31.00;;;;;;6301735;22;20732;-44
2022/04/27 09:58:44;;;;;;;3.73;2.90;;;26.40;32.20;;;;;;6301533;22;20442;-50
2022/04/27 10:01:13;;;;;;;4.40;3.23;;;26.70;32.70;;;;;;6302533;22;20379;-36
2022/04/27 10:03:42;;;;;;;3.60;3.07;;;26.70;32.20;;;;;;6302077;22;20406;-48
2022/04/27 10:06:09;;;;;;;4.90;3.07;;;25.90;32.30;;;;;;6300273;22;20410;-47
2022/04/27 10:08:38;;;;;;;3.07;2.70;;;24.80;33.40;;;;;;6302075;22;20449;-38
2022/04/27 10:11:11;;;;;;;3.13;2.70;;;23.70;34.00;;;;;;6301030;22;20418;-44
2022/04/27 10:13:39;;;;;;;2.80;2.10;;;22.80;34.90;;;;;;6302009;22;20426;-52
2022/04/27 10:16:06;;;;;;;3.70;2.77;;;22.90;36.10;;;;;;6300698;22;20406;-49
2022/04/27 10:18:33;;;;;;;2.73;2.30;;;23.10;35.30;;;;;;6299896;22;20953;-45
2022/04/27 10:21:04;;;;;;;2.40;2.20;;;24.00;35.40;;;;;;6301476;22;20386;-42
2022/04/27 10:23:43;;;;;;;2.10;1.80;;;24.50;34.90;;;;;;6300879;22;20408;-49
2022/04/27 10:26:16;;;;;;;2.43;1.93;;;24.50;34.20;;;;;;6301707;22;20396;-49
2022/04/27 10:28:50;;;;;;;4.40;2.20;;;24.00;34.20;;;;;;6301814;22;20530;-40
2022/04/27 10:31:54;;;;;;;3.03;2.30;;;23.80;34.90;;;;;;6300098;22;20383;-52
2022/04/27 10:34:22;;;;;;;2.80;2.13;;;23.90;35.70;;;;;;6276737;22;20173;-47
2022/04/27 10:36:49;;;;;;;2.60;2.40;;;24.30;35.00;;;;;;6301174;22;20489;-48
2022/04/27 10:39:19;;;;;;;2.37;2.17;;;24.70;34.20;;;;;;6301350;22;20452;-47
2022/04/27 10:42:25;;;;;;;4.33;2.73;;;24.80;33.60;;;;;;6300348;22;20421;-48
2022/04/27 10:45:08;;;;;;;2.00;1.80;;;24.90;34.30;;;;;;6300092;22;20422;-47
2022/04/27 10:47:37;;;;;;;2.67;2.47;;;24.80;33.90;;;;;;6299899;22;20480;-46
2022/04/27 10:50:35;;;;;;;4.00;2.03;;;24.60;34.30;;;;;;6300032;22;20429;-49
2022/04/27 10:53:22;;;;;;;4.00;2.40;;;24.20;35.30;;;;;;6300135;22;20449;-44
2022/04/27 10:55:53;;;;;;;3.30;2.87;;;23.90;35.10;;;;;;6300628;22;20375;-48
2022/04/27 10:58:28;;;;;;;2.80;2.07;;;23.70;35.50;;;;;;6301004;22;20426;-48
2022/04/27 11:01:30;;;;;;;4.47;2.67;;;23.60;34.60;;;;;;6300965;22;20386;-49
2022/04/27 11:04:02;;;;;;;4.33;2.80;;;23.70;35.30;;;;;;6303329;22;20401;-45
2022/04/27 11:06:31;;;;;;;5.80;2.43;;;23.70;35.30;;;;;;6303088;22;20390;-42
2022/04/27 11:09:13;;;;;;;3.30;2.53;;;23.70;34.60;;;;;;6303411;22;20465;-47
2022/04/27 11:11:52;;;;;;;2.53;2.33;;;23.50;34.70;;;;;;6303333;22;20395;-42
2022/04/27 11:14:22;;;;;;;8.10;2.70;;;23.10;34.60;;;;;;6303070;22;20401;-47
2022/04/27 11:16:51;;;;;;;3.33;2.87;;;22.70;35.20;;;;;;6302762;22;20397;-50
2022/04/27 11:19:19;;;;;;;4.43;3.03;;;22.70;36.10;;;;;;6303035;22;20464;-44
2022/04/27 11:21:48;;;;;;;3.70;3.23;;;22.80;36.20;;;;;;6303373;22;20504;-46
2022/04/27 11:24:16;;;;;;;3.73;2.40;;;22.80;36.10;;;;;;6302979;22;20409;-44
2022/04/27 11:26:44;;;;;;;4.10;2.30;;;22.70;35.50;;;;;;6303182;22;20457;-46
2022/04/27 11:29:12;;;;;;;2.47;2.27;;;22.70;36.20;;;;;;6303530;22;20394;-48
2022/04/27 11:31:42;;;;;;;3.33;2.80;;;22.50;35.70;;;;;;6303120;22;20381;-50
2022/04/27 11:34:22;;;;;;;3.30;2.30;;;22.30;36.40;;;;;;6303074;22;20383;-53
2022/04/27 11:36:50;;;;;;;2.80;2.43;;;21.80;37.30;;;;;;6302896;22;20410;-55
2022/04/27 11:39:20;;;;;;;4.40;2.70;;;21.50;38.00;;;;;;6303309;22;20462;-46
2022/04/27 11:41:47;;;;;;;6.80;2.63;;;21.50;38.50;;;;;;6303354;22;20416;-44
2022/04/27 11:44:21;;;;;;;2.80;2.50;;;21.50;38.30;;;;;;6302748;22;20422;-47
2022/04/27 11:46:49;;;;;;;5.13;2.83;;;21.40;37.80;;;;;;6303809;22;20420;-58
2022/04/27 11:49:16;;;;;;;3.00;2.53;;;21.30;37.30;;;;;;6303425;22;20429;-53
2022/04/27 11:51:46;;;;;;;2.93;2.20;;;21.10;37.50;;;;;;6302791;22;20432;-52
2022/04/27 11:54:25;;;;;;;3.43;2.60;;;21.00;38.00;;;;;;6303092;22;20382;-46
2022/04/27 11:56:56;;;;;;;5.97;2.23;;;21.00;39.30;;;;;;6303173;22;20404;-43
2022/04/27 11:59:23;;;;;;;4.17;2.97;;;20.80;38.20;;;;;;6303275;22;20422;-49
2022/04/27 12:01:55;;;;;;;5.53;3.73;;;20.60;38.80;;;;;;6302454;22;20406;-51
2022/04/27 12:04:21;;;;;;;4.37;2.30;;;20.30;38.80;;;;;;6303151;22;20739;-44
2022/04/27 12:06:49;;;;;;;3.10;2.17;;;20.10;39.20;;;;;;6302809;22;20426;-45
2022/04/27 12:09:19;;;;;;;7.00;2.37;;;19.80;39.20;;;;;;6302967;22;20393;-44
2022/04/27 12:11:48;;;;;;;4.40;2.40;;;19.60;39.90;;;;;;6302575;22;20391;-52
2022/04/27 12:14:18;;;;;;;3.23;2.30;;;19.40;39.80;;;;;;6303069;22;20382;-54
2022/04/27 12:16:45;;;;;;;7.93;3.30;;;19.30;40.30;;;;;;6302563;22;20398;-50
2022/04/27 12:19:14;;;;;;;4.20;2.40;;;19.30;40.70;;;;;;6302634;22;20456;-52
2022/04/27 12:21:42;;;;;;;3.67;3.37;;;19.30;40.60;;;;;;6302399;22;20457;-47
2022/04/27 12:24:17;;;;;;;2.67;2.30;;;19.40;40.60;;;;;;6302102;22;20501;-57
2022/04/27 12:26:44;;;;;;;3.87;2.63;;;19.60;40.80;;;;;;6302638;22;20418;-50
2022/04/27 12:29:11;;;;;;;2.73;2.17;;;19.80;40.70;;;;;;6302521;22;20461;-55
2022/04/27 12:31:40;;;;;;;6.43;2.20;;;20.10;40.90;;;;;;6302108;22;20418;-49
2022/04/27 12:37:29;;;;;;;2.07;1.87;;;20.20;40.80;;;;;;6302068;22;20406;-46
2022/04/27 12:39:41;;;;;;;2.53;2.00;;;20.10;40.70;;;;;;6302148;22;20432;-53
2022/04/27 12:42:10;;;;;;;3.50;2.53;;;19.90;40.70;;;;;;6301969;22;20433;-55
2022/04/27 12:44:42;;;;;;;5.67;2.60;;;19.70;40.80;;;;;;6302099;22;20454;-51
2022/04/27 12:47:11;;;;;;;3.40;2.47;;;19.60;40.60;;;;;;6302469;22;20432;-41
2022/04/27 12:49:39;;;;;;;2.73;2.03;;;19.60;41.20;;;;;;6301846;22;20417;-48
2022/04/27 12:52:17;;;;;;;2.60;2.10;;;19.50;40.30;;;;;;6302376;22;20488;-49
2022/04/27 12:54:45;;;;;;;3.13;2.40;;;19.70;40.20;;;;;;6302732;22;20453;-42
2022/04/27 12:57:12;;;;;;;2.43;2.23;;;19.90;39.50;;;;;;6302061;22;20449;-50
2022/04/27 12:59:55;;;;;;;3.50;2.10;;;20.00;40.00;;;;;;6302330;22;20428;-52
2022/04/27 13:02:22;;;;;;;2.60;2.00;;;20.10;39.20;;;;;;6302376;22;20398;-41
2022/04/27 13:04:49;;;;;;;4.80;2.07;;;20.20;39.00;;;;;;6302478;22;20394;-43
2022/04/27 13:07:17;;;;;;;3.50;2.00;;;20.10;39.20;;;;;;6302175;22;20465;-51
2022/04/27 13:12:30;;;;;;;3.10;2.30;;;20.40;38.90;;;;;;6302466;22;20449;-48
2022/04/27 13:14:57;;;;;;;2.73;2.13;;;20.40;39.60;;;;;;6302564;22;20422;-50
2022/04/27 13:17:25;;;;;;;3.40;2.13;;;20.30;40.10;;;;;;6301672;22;20400;-48